sensor_id;sensor_type;location;lat;lon;timestamp;P1;durP1;ratioP1;P2;durP2;ratioP2
56102;SDS011;41970;48.774;9.280;2023-05-16T00:00:23;8.10;;;7.27;;
56102;SDS011;41970;48.774;9.280;2023-05-16T00:02:52;7.40;;;6.80;;
56102;SDS011;41970;48.774;9.280;2023-05-16T00:05:18;10.03;;;9.13;;
56102;SDS011;41970;48.774;9.280;2023-05-16T00:07:44;8.00;;;6.90;;
56102;SDS011;41970;48.774;9.280;2023-05-16T00:10:11;8.17;;;7.37;;
56102;SDS011;41970;48.774;9.280;2023-05-16T00:12:37;9.87;;;8.87;;
56102;SDS011;41970;48.774;9.280;2023-05-16T00:15:07;9.50;;;8.47;;
56102;SDS011;41970;48.774;9.280;2023-05-16T00:17:34;9.77;;;8.80;;
56102;SDS011;41970;48.774;9.280;2023-05-16T00:20:03;9.33;;;8.03;;
56102;SDS011;41970;48.774;9.280;2023-05-16T00:22:31;8.57;;;7.83;;
56102;SDS011;41970;48.774;9.280;2023-05-16T00:24:57;11.03;;;9.50;;
56102;SDS011;41970;48.774;9.280;2023-05-16T00:27:23;12.20;;;10.70;;
56102;SDS011;41970;48.774;9.280;2023-05-16T00:29:49;10.40;;;9.30;;
56102;SDS011;41970;48.774;9.280;2023-05-16T00:32:15;9.70;;;8.70;;
56102;SDS011;41970;48.774;9.280;2023-05-16T00:34:41;11.40;;;9.40;;
56102;SDS011;41970;48.774;9.280;2023-05-16T00:37:07;10.93;;;9.70;;
56102;SDS011;41970;48.774;9.280;2023-05-16T00:39:33;11.93;;;10.73;;
56102;SDS011;41970;48.774;9.280;2023-05-16T00:41:59;11.93;;;10.50;;
56102;SDS011;41970;48.774;9.280;2023-05-16T00:44:25;11.53;;;10.30;;
56102;SDS011;41970;48.774;9.280;2023-05-16T00:46:52;11.27;;;10.07;;
56102;SDS011;41970;48.774;9.280;2023-05-16T00:49:18;12.17;;;10.93;;
56102;SDS011;41970;48.774;9.280;2023-05-16T00:51:45;13.13;;;11.20;;
56102;SDS011;41970;48.774;9.280;2023-05-16T00:54:12;13.50;;;12.10;;
56102;SDS011;41970;48.774;9.280;2023-05-16T00:56:37;14.77;;;10.40;;
56102;SDS011;41970;48.774;9.280;2023-05-16T00:59:03;11.33;;;10.23;;
56102;SDS011;41970;48.774;9.280;2023-05-16T01:01:30;13.17;;;10.70;;
56102;SDS011;41970;48.774;9.280;2023-05-16T01:03:56;15.17;;;11.30;;
56102;SDS011;41970;48.774;9.280;2023-05-16T01:06:22;12.70;;;11.60;;
56102;SDS011;41970;48.774;9.280;2023-05-16T01:08:48;13.23;;;11.60;;
56102;SDS011;41970;48.774;9.280;2023-05-16T01:16:28;13.40;;;11.47;;
56102;SDS011;41970;48.774;9.280;2023-05-16T01:21:55;11.47;;;10.27;;
56102;SDS011;41970;48.774;9.280;2023-05-16T01:24:33;12.57;;;10.80;;
56102;SDS011;41970;48.774;9.280;2023-05-16T01:27:06;11.80;;;10.60;;
56102;SDS011;41970;48.774;9.280;2023-05-16T01:29:33;12.53;;;11.33;;
56102;SDS011;41970;48.774;9.280;2023-05-16T01:31:59;15.20;;;12.57;;
56102;SDS011;41970;48.774;9.280;2023-05-16T01:34:25;13.50;;;12.20;;
56102;SDS011;41970;48.774;9.280;2023-05-16T01:37:03;12.93;;;11.60;;
56102;SDS011;41970;48.774;9.280;2023-05-16T01:39:40;13.60;;;12.17;;
56102;SDS011;41970;48.774;9.280;2023-05-16T01:42:14;13.60;;;11.40;;
56102;SDS011;41970;48.774;9.280;2023-05-16T01:44:52;14.40;;;11.77;;
56102;SDS011;41970;48.774;9.280;2023-05-16T01:47:25;13.07;;;11.77;;
56102;SDS011;41970;48.774;9.280;2023-05-16T01:55:10;15.47;;;13.30;;
56102;SDS011;41970;48.774;9.280;2023-05-16T01:57:58;14.03;;;11.97;;
56102;SDS011;41970;48.774;9.280;2023-05-16T02:00:28;15.57;;;13.37;;
56102;SDS011;41970;48.774;9.280;2023-05-16T02:02:54;14.17;;;11.53;;
56102;SDS011;41970;48.774;9.280;2023-05-16T02:05:20;18.57;;;16.43;;
56102;SDS011;41970;48.774;9.280;2023-05-16T02:07:46;18.10;;;15.90;;
56102;SDS011;41970;48.774;9.280;2023-05-16T02:10:12;16.90;;;14.33;;
56102;SDS011;41970;48.774;9.280;2023-05-16T02:12:38;17.37;;;14.17;;
56102;SDS011;41970;48.774;9.280;2023-05-16T02:15:04;15.30;;;13.63;;
56102;SDS011;41970;48.774;9.280;2023-05-16T02:17:30;21.80;;;18.43;;
56102;SDS011;41970;48.774;9.280;2023-05-16T02:19:56;22.47;;;18.33;;
56102;SDS011;41970;48.774;9.280;2023-05-16T02:22:22;25.67;;;21.37;;
56102;SDS011;41970;48.774;9.280;2023-05-16T02:24:47;22.47;;;19.17;;
56102;SDS011;41970;48.774;9.280;2023-05-16T02:27:13;24.80;;;21.33;;
56102;SDS011;41970;48.774;9.280;2023-05-16T02:29:39;24.70;;;22.13;;
56102;SDS011;41970;48.774;9.280;2023-05-16T02:32:05;28.47;;;21.30;;
56102;SDS011;41970;48.774;9.280;2023-05-16T02:34:31;24.17;;;20.50;;
56102;SDS011;41970;48.774;9.280;2023-05-16T02:36:57;25.67;;;21.63;;
56102;SDS011;41970;48.774;9.280;2023-05-16T02:39:22;20.07;;;16.20;;
56102;SDS011;41970;48.774;9.280;2023-05-16T02:41:48;25.53;;;21.47;;
56102;SDS011;41970;48.774;9.280;2023-05-16T02:44:14;27.20;;;22.20;;
56102;SDS011;41970;48.774;9.280;2023-05-16T02:46:40;28.17;;;22.63;;
56102;SDS011;41970;48.774;9.280;2023-05-16T02:49:05;29.20;;;24.00;;
56102;SDS011;41970;48.774;9.280;2023-05-16T02:51:31;25.53;;;22.30;;
56102;SDS011;41970;48.774;9.280;2023-05-16T02:53:57;22.53;;;19.80;;
56102;SDS011;41970;48.774;9.280;2023-05-16T02:56:25;25.20;;;22.50;;
56102;SDS011;41970;48.774;9.280;2023-05-16T02:58:52;26.13;;;21.70;;
56102;SDS011;41970;48.774;9.280;2023-05-16T03:01:18;26.30;;;21.80;;
56102;SDS011;41970;48.774;9.280;2023-05-16T03:03:44;28.57;;;21.03;;
56102;SDS011;41970;48.774;9.280;2023-05-16T03:06:10;29.83;;;23.23;;
56102;SDS011;41970;48.774;9.280;2023-05-16T03:08:36;25.73;;;21.80;;
56102;SDS011;41970;48.774;9.280;2023-05-16T03:11:02;28.03;;;23.40;;
56102;SDS011;41970;48.774;9.280;2023-05-16T03:13:28;35.50;;;23.70;;
56102;SDS011;41970;48.774;9.280;2023-05-16T03:15:54;33.20;;;22.67;;
56102;SDS011;41970;48.774;9.280;2023-05-16T03:18:20;25.73;;;21.53;;
56102;SDS011;41970;48.774;9.280;2023-05-16T03:20:46;28.53;;;22.33;;
56102;SDS011;41970;48.774;9.280;2023-05-16T03:23:11;27.10;;;22.40;;
56102;SDS011;41970;48.774;9.280;2023-05-16T03:25:37;28.53;;;22.80;;
56102;SDS011;41970;48.774;9.280;2023-05-16T03:28:04;26.80;;;22.90;;
56102;SDS011;41970;48.774;9.280;2023-05-16T03:30:32;24.60;;;19.27;;
56102;SDS011;41970;48.774;9.280;2023-05-16T03:32:58;29.47;;;24.87;;
56102;SDS011;41970;48.774;9.280;2023-05-16T03:35:24;32.07;;;22.83;;
56102;SDS011;41970;48.774;9.280;2023-05-16T03:37:50;32.20;;;24.27;;
56102;SDS011;41970;48.774;9.280;2023-05-16T03:40:16;30.87;;;23.50;;
56102;SDS011;41970;48.774;9.280;2023-05-16T03:42:42;29.60;;;24.10;;
56102;SDS011;41970;48.774;9.280;2023-05-16T03:45:07;29.50;;;24.17;;
56102;SDS011;41970;48.774;9.280;2023-05-16T03:47:35;33.30;;;24.40;;
56102;SDS011;41970;48.774;9.280;2023-05-16T03:50:01;32.87;;;23.90;;
56102;SDS011;41970;48.774;9.280;2023-05-16T03:52:27;33.17;;;24.33;;
56102;SDS011;41970;48.774;9.280;2023-05-16T03:54:53;31.30;;;24.30;;
56102;SDS011;41970;48.774;9.280;2023-05-16T03:57:20;33.00;;;25.77;;
56102;SDS011;41970;48.774;9.280;2023-05-16T03:59:46;31.30;;;25.60;;
56102;SDS011;41970;48.774;9.280;2023-05-16T04:02:11;34.10;;;25.97;;
56102;SDS011;41970;48.774;9.280;2023-05-16T04:04:37;33.57;;;25.17;;
56102;SDS011;41970;48.774;9.280;2023-05-16T04:07:03;33.60;;;26.27;;
56102;SDS011;41970;48.774;9.280;2023-05-16T04:09:29;34.43;;;25.50;;
56102;SDS011;41970;48.774;9.280;2023-05-16T04:11:55;37.70;;;28.27;;
56102;SDS011;41970;48.774;9.280;2023-05-16T04:14:20;35.33;;;25.67;;
56102;SDS011;41970;48.774;9.280;2023-05-16T04:16:49;33.93;;;25.87;;
56102;SDS011;41970;48.774;9.280;2023-05-16T04:19:15;36.13;;;26.80;;
56102;SDS011;41970;48.774;9.280;2023-05-16T04:21:41;36.40;;;26.73;;
56102;SDS011;41970;48.774;9.280;2023-05-16T04:24:07;34.27;;;28.00;;
56102;SDS011;41970;48.774;9.280;2023-05-16T04:26:32;35.33;;;27.60;;
56102;SDS011;41970;48.774;9.280;2023-05-16T04:28:58;36.07;;;27.30;;
56102;SDS011;41970;48.774;9.280;2023-05-16T04:31:24;37.07;;;26.37;;
56102;SDS011;41970;48.774;9.280;2023-05-16T04:33:50;38.70;;;26.87;;
56102;SDS011;41970;48.774;9.280;2023-05-16T04:36:16;37.53;;;28.73;;
56102;SDS011;41970;48.774;9.280;2023-05-16T04:38:42;33.70;;;26.10;;
56102;SDS011;41970;48.774;9.280;2023-05-16T04:41:08;36.63;;;27.97;;
56102;SDS011;41970;48.774;9.280;2023-05-16T04:43:34;39.17;;;29.73;;
56102;SDS011;41970;48.774;9.280;2023-05-16T04:45:59;37.77;;;28.50;;
56102;SDS011;41970;48.774;9.280;2023-05-16T04:48:25;40.97;;;30.70;;
56102;SDS011;41970;48.774;9.280;2023-05-16T04:50:51;38.73;;;27.13;;
56102;SDS011;41970;48.774;9.280;2023-05-16T04:53:17;36.67;;;26.07;;
56102;SDS011;41970;48.774;9.280;2023-05-16T04:55:42;31.20;;;22.90;;
56102;SDS011;41970;48.774;9.280;2023-05-16T04:58:08;40.60;;;27.67;;
56102;SDS011;41970;48.774;9.280;2023-05-16T05:00:34;43.10;;;31.00;;
56102;SDS011;41970;48.774;9.280;2023-05-16T05:03:00;38.80;;;27.23;;
56102;SDS011;41970;48.774;9.280;2023-05-16T05:05:26;38.30;;;28.50;;
56102;SDS011;41970;48.774;9.280;2023-05-16T05:07:51;72.93;;;34.30;;
56102;SDS011;41970;48.774;9.280;2023-05-16T05:10:18;42.07;;;30.17;;
56102;SDS011;41970;48.774;9.280;2023-05-16T05:12:44;37.53;;;26.13;;
56102;SDS011;41970;48.774;9.280;2023-05-16T05:15:13;33.40;;;26.50;;
56102;SDS011;41970;48.774;9.280;2023-05-16T05:17:46;36.50;;;27.77;;
56102;SDS011;41970;48.774;9.280;2023-05-16T05:20:12;27.23;;;21.50;;
56102;SDS011;41970;48.774;9.280;2023-05-16T05:22:38;30.07;;;24.10;;
56102;SDS011;41970;48.774;9.280;2023-05-16T05:25:04;41.93;;;28.03;;
56102;SDS011;41970;48.774;9.280;2023-05-16T05:27:30;37.40;;;27.20;;
56102;SDS011;41970;48.774;9.280;2023-05-16T05:29:56;34.07;;;23.13;;
56102;SDS011;41970;48.774;9.280;2023-05-16T05:32:22;39.80;;;25.90;;
56102;SDS011;41970;48.774;9.280;2023-05-16T05:34:48;38.40;;;26.40;;
56102;SDS011;41970;48.774;9.280;2023-05-16T05:37:13;30.57;;;21.77;;
56102;SDS011;41970;48.774;9.280;2023-05-16T05:39:39;44.53;;;31.67;;
56102;SDS011;41970;48.774;9.280;2023-05-16T05:42:05;36.67;;;27.10;;
56102;SDS011;41970;48.774;9.280;2023-05-16T05:44:31;41.47;;;28.53;;
56102;SDS011;41970;48.774;9.280;2023-05-16T05:46:57;38.63;;;27.93;;
56102;SDS011;41970;48.774;9.280;2023-05-16T05:49:25;39.33;;;28.63;;
56102;SDS011;41970;48.774;9.280;2023-05-16T05:51:52;36.53;;;26.73;;
56102;SDS011;41970;48.774;9.280;2023-05-16T05:54:18;35.57;;;28.20;;
56102;SDS011;41970;48.774;9.280;2023-05-16T05:56:44;43.20;;;31.40;;
56102;SDS011;41970;48.774;9.280;2023-05-16T05:59:10;44.30;;;28.80;;
56102;SDS011;41970;48.774;9.280;2023-05-16T06:01:36;39.67;;;26.93;;
56102;SDS011;41970;48.774;9.280;2023-05-16T06:04:02;38.90;;;27.60;;
56102;SDS011;41970;48.774;9.280;2023-05-16T06:06:28;36.13;;;25.53;;
56102;SDS011;41970;48.774;9.280;2023-05-16T06:08:55;35.00;;;24.60;;
56102;SDS011;41970;48.774;9.280;2023-05-16T06:11:20;33.27;;;23.23;;
56102;SDS011;41970;48.774;9.280;2023-05-16T06:13:46;37.53;;;24.80;;
56102;SDS011;41970;48.774;9.280;2023-05-16T06:16:12;31.40;;;24.40;;
56102;SDS011;41970;48.774;9.280;2023-05-16T06:18:39;32.07;;;24.80;;
56102;SDS011;41970;48.774;9.280;2023-05-16T06:21:05;32.00;;;24.33;;
56102;SDS011;41970;48.774;9.280;2023-05-16T06:23:31;29.60;;;23.40;;
56102;SDS011;41970;48.774;9.280;2023-05-16T06:25:57;28.90;;;20.60;;
56102;SDS011;41970;48.774;9.280;2023-05-16T06:28:23;36.37;;;24.73;;
56102;SDS011;41970;48.774;9.280;2023-05-16T06:30:49;40.13;;;25.50;;
56102;SDS011;41970;48.774;9.280;2023-05-16T06:33:16;43.07;;;26.23;;
56102;SDS011;41970;48.774;9.280;2023-05-16T06:35:42;29.67;;;24.53;;
56102;SDS011;41970;48.774;9.280;2023-05-16T06:38:08;30.57;;;22.93;;
56102;SDS011;41970;48.774;9.280;2023-05-16T06:40:33;25.73;;;22.10;;
56102;SDS011;41970;48.774;9.280;2023-05-16T06:42:59;22.90;;;18.07;;
56102;SDS011;41970;48.774;9.280;2023-05-16T06:45:26;23.43;;;18.63;;
56102;SDS011;41970;48.774;9.280;2023-05-16T06:47:52;29.23;;;20.30;;
56102;SDS011;41970;48.774;9.280;2023-05-16T06:50:17;22.73;;;17.70;;
56102;SDS011;41970;48.774;9.280;2023-05-16T06:52:46;26.83;;;21.90;;
56102;SDS011;41970;48.774;9.280;2023-05-16T06:55:12;23.13;;;19.20;;
56102;SDS011;41970;48.774;9.280;2023-05-16T06:57:38;17.43;;;15.33;;
56102;SDS011;41970;48.774;9.280;2023-05-16T07:00:05;26.13;;;19.43;;
56102;SDS011;41970;48.774;9.280;2023-05-16T07:02:31;21.90;;;17.80;;
56102;SDS011;41970;48.774;9.280;2023-05-16T07:04:57;24.23;;;18.30;;
56102;SDS011;41970;48.774;9.280;2023-05-16T07:07:24;21.37;;;17.40;;
56102;SDS011;41970;48.774;9.280;2023-05-16T07:09:50;21.73;;;17.97;;
56102;SDS011;41970;48.774;9.280;2023-05-16T07:12:16;24.73;;;22.07;;
56102;SDS011;41970;48.774;9.280;2023-05-16T07:14:42;25.10;;;19.70;;
56102;SDS011;41970;48.774;9.280;2023-05-16T07:17:08;21.47;;;16.57;;
56102;SDS011;41970;48.774;9.280;2023-05-16T07:19:34;28.20;;;18.30;;
56102;SDS011;41970;48.774;9.280;2023-05-16T07:22:00;21.07;;;17.23;;
56102;SDS011;41970;48.774;9.280;2023-05-16T07:24:26;23.57;;;19.43;;
56102;SDS011;41970;48.774;9.280;2023-05-16T07:26:52;21.20;;;18.30;;
56102;SDS011;41970;48.774;9.280;2023-05-16T07:29:17;32.03;;;20.90;;
56102;SDS011;41970;48.774;9.280;2023-05-16T07:31:43;26.70;;;20.27;;
56102;SDS011;41970;48.774;9.280;2023-05-16T07:34:09;24.07;;;17.87;;
56102;SDS011;41970;48.774;9.280;2023-05-16T07:36:36;17.63;;;15.73;;
56102;SDS011;41970;48.774;9.280;2023-05-16T07:39:02;21.60;;;18.77;;
56102;SDS011;41970;48.774;9.280;2023-05-16T07:41:28;27.33;;;18.90;;
56102;SDS011;41970;48.774;9.280;2023-05-16T07:43:54;22.70;;;15.83;;
56102;SDS011;41970;48.774;9.280;2023-05-16T07:46:20;18.63;;;14.83;;
56102;SDS011;41970;48.774;9.280;2023-05-16T07:48:46;19.73;;;16.20;;
56102;SDS011;41970;48.774;9.280;2023-05-16T07:51:12;19.20;;;16.90;;
56102;SDS011;41970;48.774;9.280;2023-05-16T07:53:38;25.70;;;18.47;;
56102;SDS011;41970;48.774;9.280;2023-05-16T07:56:03;16.80;;;13.73;;
56102;SDS011;41970;48.774;9.280;2023-05-16T07:58:30;17.60;;;15.57;;
56102;SDS011;41970;48.774;9.280;2023-05-16T08:00:56;16.63;;;12.97;;
56102;SDS011;41970;48.774;9.280;2023-05-16T08:03:22;17.83;;;14.87;;
56102;SDS011;41970;48.774;9.280;2023-05-16T08:05:48;15.63;;;13.70;;
56102;SDS011;41970;48.774;9.280;2023-05-16T08:08:14;19.10;;;15.20;;
56102;SDS011;41970;48.774;9.280;2023-05-16T08:10:40;15.80;;;14.17;;
56102;SDS011;41970;48.774;9.280;2023-05-16T08:13:05;16.87;;;12.17;;
56102;SDS011;41970;48.774;9.280;2023-05-16T08:15:31;14.97;;;13.50;;
56102;SDS011;41970;48.774;9.280;2023-05-16T08:17:57;15.47;;;13.30;;
56102;SDS011;41970;48.774;9.280;2023-05-16T08:20:26;15.57;;;13.40;;
56102;SDS011;41970;48.774;9.280;2023-05-16T08:22:52;14.60;;;13.17;;
56102;SDS011;41970;48.774;9.280;2023-05-16T08:25:19;14.50;;;12.90;;
56102;SDS011;41970;48.774;9.280;2023-05-16T08:27:45;16.73;;;14.33;;
56102;SDS011;41970;48.774;9.280;2023-05-16T08:30:13;107.20;;;33.60;;
56102;SDS011;41970;48.774;9.280;2023-05-16T08:32:38;12.13;;;10.90;;
56102;SDS011;41970;48.774;9.280;2023-05-16T08:35:05;11.67;;;10.50;;
56102;SDS011;41970;48.774;9.280;2023-05-16T08:37:32;13.37;;;11.97;;
56102;SDS011;41970;48.774;9.280;2023-05-16T08:39:58;13.07;;;11.77;;
56102;SDS011;41970;48.774;9.280;2023-05-16T08:42:25;15.00;;;13.33;;
56102;SDS011;41970;48.774;9.280;2023-05-16T08:44:51;14.57;;;12.50;;
56102;SDS011;41970;48.774;9.280;2023-05-16T08:47:18;12.73;;;10.90;;
56102;SDS011;41970;48.774;9.280;2023-05-16T08:49:50;13.63;;;12.23;;
56102;SDS011;41970;48.774;9.280;2023-05-16T08:52:20;15.33;;;13.60;;
56102;SDS011;41970;48.774;9.280;2023-05-16T08:54:50;16.17;;;13.03;;
56102;SDS011;41970;48.774;9.280;2023-05-16T08:57:16;16.43;;;12.93;;
56102;SDS011;41970;48.774;9.280;2023-05-16T08:59:45;13.33;;;11.93;;
56102;SDS011;41970;48.774;9.280;2023-05-16T09:02:10;15.20;;;13.63;;
56102;SDS011;41970;48.774;9.280;2023-05-16T09:04:37;16.03;;;12.97;;
56102;SDS011;41970;48.774;9.280;2023-05-16T09:07:05;14.60;;;11.50;;
56102;SDS011;41970;48.774;9.280;2023-05-16T09:09:31;13.63;;;12.23;;
56102;SDS011;41970;48.774;9.280;2023-05-16T09:11:56;13.93;;;12.43;;
56102;SDS011;41970;48.774;9.280;2023-05-16T09:14:23;18.00;;;14.10;;
56102;SDS011;41970;48.774;9.280;2023-05-16T09:17:09;13.87;;;11.90;;
56102;SDS011;41970;48.774;9.280;2023-05-16T09:19:39;32.13;;;17.43;;
56102;SDS011;41970;48.774;9.280;2023-05-16T09:22:12;15.90;;;13.10;;
56102;SDS011;41970;48.774;9.280;2023-05-16T09:24:43;13.60;;;12.20;;
56102;SDS011;41970;48.774;9.280;2023-05-16T09:27:15;19.70;;;15.07;;
56102;SDS011;41970;48.774;9.280;2023-05-16T09:29:42;22.53;;;16.43;;
56102;SDS011;41970;48.774;9.280;2023-05-16T09:32:09;12.37;;;11.07;;
56102;SDS011;41970;48.774;9.280;2023-05-16T09:34:41;17.47;;;15.27;;
56102;SDS011;41970;48.774;9.280;2023-05-16T09:37:08;18.03;;;14.80;;
56102;SDS011;41970;48.774;9.280;2023-05-16T09:39:35;18.80;;;14.23;;
56102;SDS011;41970;48.774;9.280;2023-05-16T09:42:01;19.43;;;15.27;;
56102;SDS011;41970;48.774;9.280;2023-05-16T09:44:27;17.50;;;13.20;;
56102;SDS011;41970;48.774;9.280;2023-05-16T09:46:53;19.17;;;16.50;;
56102;SDS011;41970;48.774;9.280;2023-05-16T09:49:19;19.10;;;16.73;;
56102;SDS011;41970;48.774;9.280;2023-05-16T09:51:45;19.00;;;16.00;;
56102;SDS011;41970;48.774;9.280;2023-05-16T09:54:11;19.97;;;15.90;;
56102;SDS011;41970;48.774;9.280;2023-05-16T09:56:56;22.47;;;17.77;;
56102;SDS011;41970;48.774;9.280;2023-05-16T09:59:22;21.10;;;17.10;;
56102;SDS011;41970;48.774;9.280;2023-05-16T10:01:49;18.30;;;16.40;;
56102;SDS011;41970;48.774;9.280;2023-05-16T10:04:17;21.63;;;17.40;;
56102;SDS011;41970;48.774;9.280;2023-05-16T10:06:42;21.10;;;17.43;;
56102;SDS011;41970;48.774;9.280;2023-05-16T10:09:10;21.47;;;15.40;;
56102;SDS011;41970;48.774;9.280;2023-05-16T10:11:41;19.80;;;16.00;;
56102;SDS011;41970;48.774;9.280;2023-05-16T10:14:10;19.80;;;15.53;;
56102;SDS011;41970;48.774;9.280;2023-05-16T10:16:39;20.43;;;15.27;;
56102;SDS011;41970;48.774;9.280;2023-05-16T10:19:07;21.47;;;16.10;;
56102;SDS011;41970;48.774;9.280;2023-05-16T10:21:33;20.20;;;17.43;;
56102;SDS011;41970;48.774;9.280;2023-05-16T10:24:02;22.57;;;17.23;;
56102;SDS011;41970;48.774;9.280;2023-05-16T10:26:30;19.77;;;16.60;;
56102;SDS011;41970;48.774;9.280;2023-05-16T10:28:59;16.00;;;12.83;;
56102;SDS011;41970;48.774;9.280;2023-05-16T10:31:27;18.20;;;15.83;;
56102;SDS011;41970;48.774;9.280;2023-05-16T10:33:54;17.03;;;13.50;;
56102;SDS011;41970;48.774;9.280;2023-05-16T10:36:21;21.53;;;16.40;;
56102;SDS011;41970;48.774;9.280;2023-05-16T10:38:48;18.30;;;14.10;;
56102;SDS011;41970;48.774;9.280;2023-05-16T10:41:15;18.87;;;15.43;;
56102;SDS011;41970;48.774;9.280;2023-05-16T10:43:43;23.40;;;17.67;;
56102;SDS011;41970;48.774;9.280;2023-05-16T10:46:20;26.33;;;15.70;;
56102;SDS011;41970;48.774;9.280;2023-05-16T10:48:48;21.60;;;17.47;;
56102;SDS011;41970;48.774;9.280;2023-05-16T10:54:07;25.03;;;16.63;;
56102;SDS011;41970;48.774;9.280;2023-05-16T10:56:35;25.63;;;17.07;;
56102;SDS011;41970;48.774;9.280;2023-05-16T10:59:01;54.17;;;19.37;;
56102;SDS011;41970;48.774;9.280;2023-05-16T11:01:32;17.90;;;14.07;;
56102;SDS011;41970;48.774;9.280;2023-05-16T11:04:00;20.57;;;16.83;;
56102;SDS011;41970;48.774;9.280;2023-05-16T11:06:28;17.03;;;14.07;;
56102;SDS011;41970;48.774;9.280;2023-05-16T11:11:53;19.23;;;15.37;;
56102;SDS011;41970;48.774;9.280;2023-05-16T11:25:02;19.23;;;14.20;;
56102;SDS011;41970;48.774;9.280;2023-05-16T11:27:29;14.83;;;12.97;;
56102;SDS011;41970;48.774;9.280;2023-05-16T11:30:18;14.33;;;12.20;;
56102;SDS011;41970;48.774;9.280;2023-05-16T11:32:45;17.57;;;12.83;;
56102;SDS011;41970;48.774;9.280;2023-05-16T11:35:15;13.90;;;11.40;;
56102;SDS011;41970;48.774;9.280;2023-05-16T11:37:42;13.23;;;10.90;;
56102;SDS011;41970;48.774;9.280;2023-05-16T11:40:10;10.57;;;9.13;;
56102;SDS011;41970;48.774;9.280;2023-05-16T11:42:38;10.60;;;9.37;;
56102;SDS011;41970;48.774;9.280;2023-05-16T11:45:06;12.00;;;9.50;;
56102;SDS011;41970;48.774;9.280;2023-05-16T11:47:35;10.27;;;8.70;;
56102;SDS011;41970;48.774;9.280;2023-05-16T11:50:03;13.50;;;9.23;;
56102;SDS011;41970;48.774;9.280;2023-05-16T11:52:35;9.87;;;8.80;;
56102;SDS011;41970;48.774;9.280;2023-05-16T11:55:03;10.60;;;9.30;;
56102;SDS011;41970;48.774;9.280;2023-05-16T11:57:30;12.33;;;9.33;;
56102;SDS011;41970;48.774;9.280;2023-05-16T12:00:19;10.17;;;9.10;;
56102;SDS011;41970;48.774;9.280;2023-05-16T12:02:44;8.23;;;7.37;;
56102;SDS011;41970;48.774;9.280;2023-05-16T12:05:12;12.50;;;8.30;;
56102;SDS011;41970;48.774;9.280;2023-05-16T12:07:38;10.80;;;9.70;;
56102;SDS011;41970;48.774;9.280;2023-05-16T12:10:08;10.63;;;9.07;;
56102;SDS011;41970;48.774;9.280;2023-05-16T12:12:35;9.43;;;8.10;;
56102;SDS011;41970;48.774;9.280;2023-05-16T12:15:04;11.73;;;8.90;;
56102;SDS011;41970;48.774;9.280;2023-05-16T12:17:32;9.57;;;8.20;;
56102;SDS011;41970;48.774;9.280;2023-05-16T12:19:58;11.53;;;9.17;;
56102;SDS011;41970;48.774;9.280;2023-05-16T12:22:25;10.40;;;9.27;;
56102;SDS011;41970;48.774;9.280;2023-05-16T12:24:51;10.83;;;7.53;;
56102;SDS011;41970;48.774;9.280;2023-05-16T12:27:22;10.70;;;8.53;;
56102;SDS011;41970;48.774;9.280;2023-05-16T12:29:49;8.57;;;7.47;;
56102;SDS011;41970;48.774;9.280;2023-05-16T12:32:19;8.40;;;7.60;;
56102;SDS011;41970;48.774;9.280;2023-05-16T12:34:49;9.60;;;6.80;;
56102;SDS011;41970;48.774;9.280;2023-05-16T12:37:16;7.90;;;7.10;;
56102;SDS011;41970;48.774;9.280;2023-05-16T12:39:42;7.63;;;6.20;;
56102;SDS011;41970;48.774;9.280;2023-05-16T12:42:11;8.47;;;6.90;;
56102;SDS011;41970;48.774;9.280;2023-05-16T12:44:37;7.37;;;6.67;;
56102;SDS011;41970;48.774;9.280;2023-05-16T12:47:09;5.93;;;4.70;;
56102;SDS011;41970;48.774;9.280;2023-05-16T12:49:36;7.50;;;6.07;;
56102;SDS011;41970;48.774;9.280;2023-05-16T12:52:18;6.07;;;5.37;;
56102;SDS011;41970;48.774;9.280;2023-05-16T12:54:48;9.23;;;6.10;;
56102;SDS011;41970;48.774;9.280;2023-05-16T12:57:14;6.53;;;5.93;;
56102;SDS011;41970;48.774;9.280;2023-05-16T12:59:40;6.50;;;5.80;;
56102;SDS011;41970;48.774;9.280;2023-05-16T13:02:06;6.33;;;5.60;;
56102;SDS011;41970;48.774;9.280;2023-05-16T13:04:31;8.50;;;5.90;;
56102;SDS011;41970;48.774;9.280;2023-05-16T13:06:57;5.50;;;5.00;;
56102;SDS011;41970;48.774;9.280;2023-05-16T13:09:23;5.93;;;5.37;;
56102;SDS011;41970;48.774;9.280;2023-05-16T13:11:49;5.37;;;4.80;;
56102;SDS011;41970;48.774;9.280;2023-05-16T13:14:15;5.37;;;4.87;;
56102;SDS011;41970;48.774;9.280;2023-05-16T13:16:42;5.20;;;4.70;;
56102;SDS011;41970;48.774;9.280;2023-05-16T13:19:08;5.37;;;4.87;;
56102;SDS011;41970;48.774;9.280;2023-05-16T13:21:34;5.37;;;4.87;;
56102;SDS011;41970;48.774;9.280;2023-05-16T13:24:00;5.10;;;4.60;;
56102;SDS011;41970;48.774;9.280;2023-05-16T13:26:26;4.30;;;4.00;;
56102;SDS011;41970;48.774;9.280;2023-05-16T13:28:52;5.23;;;4.73;;
56102;SDS011;41970;48.774;9.280;2023-05-16T13:31:19;4.60;;;4.20;;
56102;SDS011;41970;48.774;9.280;2023-05-16T13:33:46;10.43;;;4.97;;
56102;SDS011;41970;48.774;9.280;2023-05-16T13:36:12;6.07;;;3.60;;
56102;SDS011;41970;48.774;9.280;2023-05-16T13:38:38;7.23;;;4.20;;
56102;SDS011;41970;48.774;9.280;2023-05-16T13:41:05;4.60;;;4.20;;
56102;SDS011;41970;48.774;9.280;2023-05-16T13:43:31;5.93;;;4.77;;
56102;SDS011;41970;48.774;9.280;2023-05-16T13:45:57;8.97;;;4.50;;
56102;SDS011;41970;48.774;9.280;2023-05-16T13:48:22;4.47;;;4.07;;
56102;SDS011;41970;48.774;9.280;2023-05-16T13:50:49;4.50;;;4.10;;
56102;SDS011;41970;48.774;9.280;2023-05-16T13:53:16;4.40;;;3.70;;
56102;SDS011;41970;48.774;9.280;2023-05-16T13:55:41;4.37;;;3.97;;
56102;SDS011;41970;48.774;9.280;2023-05-16T13:58:07;4.00;;;3.70;;
56102;SDS011;41970;48.774;9.280;2023-05-16T14:00:33;4.50;;;4.10;;
56102;SDS011;41970;48.774;9.280;2023-05-16T14:02:59;4.63;;;4.20;;
56102;SDS011;41970;48.774;9.280;2023-05-16T14:05:25;3.77;;;3.47;;
56102;SDS011;41970;48.774;9.280;2023-05-16T14:07:51;6.40;;;4.50;;
56102;SDS011;41970;48.774;9.280;2023-05-16T14:10:16;3.73;;;3.43;;
56102;SDS011;41970;48.774;9.280;2023-05-16T14:12:42;3.77;;;3.47;;
56102;SDS011;41970;48.774;9.280;2023-05-16T14:15:08;4.80;;;4.13;;
56102;SDS011;41970;48.774;9.280;2023-05-16T14:17:34;3.50;;;3.20;;
56102;SDS011;41970;48.774;9.280;2023-05-16T14:20:01;3.63;;;3.33;;
56102;SDS011;41970;48.774;9.280;2023-05-16T14:22:32;3.80;;;3.40;;
56102;SDS011;41970;48.774;9.280;2023-05-16T14:24:58;4.20;;;3.80;;
56102;SDS011;41970;48.774;9.280;2023-05-16T14:27:24;3.40;;;3.10;;
56102;SDS011;41970;48.774;9.280;2023-05-16T14:29:50;5.70;;;4.50;;
56102;SDS011;41970;48.774;9.280;2023-05-16T14:32:16;6.60;;;4.00;;
56102;SDS011;41970;48.774;9.280;2023-05-16T14:34:43;4.13;;;3.73;;
56102;SDS011;41970;48.774;9.280;2023-05-16T14:37:09;3.90;;;3.50;;
56102;SDS011;41970;48.774;9.280;2023-05-16T14:39:35;10.47;;;4.00;;
56102;SDS011;41970;48.774;9.280;2023-05-16T14:42:13;6.70;;;4.07;;
56102;SDS011;41970;48.774;9.280;2023-05-16T14:44:39;5.00;;;3.70;;
56102;SDS011;41970;48.774;9.280;2023-05-16T14:47:05;3.70;;;3.17;;
56102;SDS011;41970;48.774;9.280;2023-05-16T14:49:31;3.40;;;3.17;;
56102;SDS011;41970;48.774;9.280;2023-05-16T14:51:56;3.60;;;3.20;;
56102;SDS011;41970;48.774;9.280;2023-05-16T14:54:22;4.10;;;3.37;;
56102;SDS011;41970;48.774;9.280;2023-05-16T14:56:48;3.20;;;2.90;;